Time;durP1;ratioP1;P1;durP2;ratioP2;P2;SDS_P1;SDS_P2;PMS_P1;PMS_P2;Temp;Humidity;BMP_temperature;BMP_pressure;BME280_temperature;BME280_humidity;BME280_pressure;Samples;Min_cycle;Max_cycle;Signal;HPM_P1;HPM_P2
2021/10/09 00:01:46;;;;;;;45.80;19.40;;;;;;;5.90;66.77;101665.59;5032568;28;20425;-51
2021/10/09 00:04:11;;;;;;;40.78;20.45;;;;;;;5.90;66.95;101658.72;5034677;28;20465;-51
2021/10/09 00:06:37;;;;;;;40.53;20.65;;;;;;;5.89;67.15;101659.53;5017917;28;20057;-52
2021/10/09 00:09:03;;;;;;;46.90;20.45;;;;;;;5.86;67.07;101659.44;5032713;28;20041;-54
2021/10/09 00:11:38;;;;;;;46.50;21.67;;;;;;;5.83;67.18;101650.78;5031333;28;20132;-52
2021/10/09 00:14:09;;;;;;;44.33;21.00;;;;;;;5.78;66.99;101652.44;5032749;28;20432;-53
2021/10/09 00:16:35;;;;;;;43.85;20.45;;;;;;;5.79;67.26;101649.88;5034325;28;20037;-50
2021/10/09 00:19:02;;;;;;;42.30;20.48;;;;;;;5.82;66.87;101657.66;5049403;28;20500;-49
2021/10/09 00:21:29;;;;;;;40.72;20.10;;;;;;;5.85;66.88;101654.28;5034987;28;20053;-52
2021/10/09 00:23:54;;;;;;;55.70;22.45;;;;;;;5.84;67.10;101650.81;5032328;28;20037;-48
2021/10/09 00:26:20;;;;;;;52.10;21.80;;;;;;;5.85;66.47;101660.31;5026951;28;20180;-50
2021/10/09 00:28:46;;;;;;;48.08;21.83;;;;;;;5.79;66.99;101652.47;5012550;28;20123;-53
2021/10/09 00:31:12;;;;;;;48.08;22.17;;;;;;;5.75;67.04;101645.53;5014285;28;20181;-51
2021/10/09 00:33:38;;;;;;;46.28;20.50;;;;;;;5.73;67.25;101643.75;5018638;28;20099;-49
2021/10/09 00:36:05;;;;;;;40.83;19.77;;;;;;;5.69;67.65;101639.38;5011236;28;20453;-51
2021/10/09 00:38:31;;;;;;;46.38;20.70;;;;;;;5.62;67.71;101635.81;5012051;28;20184;-53
2021/10/09 00:40:57;;;;;;;45.15;21.75;;;;;;;5.65;67.04;101630.72;5022237;28;20484;-51
2021/10/09 00:43:23;;;;;;;51.50;22.27;;;;;;;5.65;67.14;101646.22;5038311;28;20038;-49
2021/10/09 00:45:55;;;;;;;48.42;20.65;;;;;;;5.64;67.59;101636.72;5031109;28;20094;-48
2021/10/09 00:48:21;;;;;;;51.40;19.77;;;;;;;5.63;67.59;101636.69;5031735;28;20416;-53
2021/10/09 00:50:48;;;;;;;55.33;21.38;;;;;;;5.55;67.74;101634.84;5045550;28;20521;-51
2021/10/09 00:53:14;;;;;;;41.05;20.50;;;;;;;5.51;68.21;101639.91;5012075;28;20073;-54
2021/10/09 00:55:40;;;;;;;42.63;21.55;;;;;;;5.49;68.20;101637.34;5012178;28;20038;-51
2021/10/09 00:58:08;;;;;;;49.60;20.98;;;;;;;5.46;68.01;101649.28;5027728;28;20045;-51
2021/10/09 01:00:35;;;;;;;51.67;20.00;;;;;;;5.38;67.96;101636.28;5030495;28;20559;-50
2021/10/09 01:03:03;;;;;;;44.05;20.20;;;;;;;5.35;68.38;101630.16;5031675;28;20048;-50
2021/10/09 01:05:29;;;;;;;41.17;19.85;;;;;;;5.35;68.61;101633.63;5030439;28;20041;-55
2021/10/09 01:07:55;;;;;;;42.25;19.98;;;;;;;5.26;68.54;101619.69;5016963;28;20502;-51
2021/10/09 01:10:21;;;;;;;44.47;20.80;;;;;;;5.37;68.47;101636.25;5029837;28;20111;-53
2021/10/09 01:12:47;;;;;;;44.00;20.90;;;;;;;5.38;68.51;101628.53;5030485;28;20143;-52
2021/10/09 01:15:21;;;;;;;44.47;20.55;;;;;;;5.37;68.00;101633.66;5045558;28;20041;-50
2021/10/09 01:17:48;;;;;;;41.17;21.25;;;;;;;5.35;67.79;101631.03;5010602;28;20046;-49
2021/10/09 01:20:15;;;;;;;48.83;21.27;;;;;;;5.33;68.37;101631.88;5026925;28;20136;-52
2021/10/09 01:22:42;;;;;;;43.03;20.95;;;;;;;5.32;68.42;101623.25;5011439;28;20062;-50
2021/10/09 01:25:08;;;;;;;44.40;20.88;;;;;;;5.24;68.15;101629.09;5011584;28;20049;-50
2021/10/09 01:27:39;;;;;;;49.15;21.23;;;;;;;5.20;68.81;101625.63;5033712;28;20038;-50
2021/10/09 01:30:06;;;;;;;46.75;20.05;;;;;;;5.21;68.56;101634.22;5026553;28;20042;-52
2021/10/09 01:32:32;;;;;;;42.10;21.48;;;;;;;5.22;69.05;101625.66;5026565;28;20575;-49
2021/10/09 01:34:57;;;;;;;38.35;20.85;;;;;;;5.19;68.65;101625.56;5013440;28;20081;-54
2021/10/09 01:37:23;;;;;;;40.38;19.83;;;;;;;5.13;68.94;101622.91;5009510;28;20148;-49
2021/10/09 01:39:49;;;;;;;44.42;20.25;;;;;;;4.97;69.24;101616.59;5026350;28;20080;-52
2021/10/09 01:42:22;;;;;;;49.78;20.48;;;;;;;5.03;69.67;101625.28;4993763;28;20045;-52
2021/10/09 01:44:50;;;;;;;47.58;21.25;;;;;;;5.02;69.43;101623.53;5009946;28;20041;-53
2021/10/09 01:47:15;;;;;;;45.15;22.30;;;;;;;5.00;69.26;101621.78;5033215;28;20115;-53
2021/10/09 01:49:44;;;;;;;43.50;20.83;;;;;;;5.00;69.26;101622.66;5012508;28;20531;-52
2021/10/09 01:52:10;;;;;;;43.65;20.65;;;;;;;5.01;69.65;101621.84;5050098;28;20077;-50
2021/10/09 01:54:36;;;;;;;45.95;20.08;;;;;;;5.01;69.31;101624.41;5010704;28;20103;-52
2021/10/09 01:57:03;;;;;;;50.78;21.27;;;;;;;4.87;69.57;101605.22;5027131;28;20041;-51
2021/10/09 01:59:29;;;;;;;41.70;19.90;;;;;;;4.89;70.28;101612.97;5013041;28;20045;-48
2021/10/09 02:02:01;;;;;;;42.97;19.80;;;;;;;4.90;69.63;101610.44;5012402;28;20069;-49
2021/10/09 02:04:29;;;;;;;44.88;21.75;;;;;;;4.94;70.11;101611.34;5043900;28;20510;-49
2021/10/09 02:06:55;;;;;;;46.15;20.95;;;;;;;4.90;70.09;101614.72;5023678;28;20088;-48
2021/10/09 02:09:21;;;;;;;41.05;20.17;;;;;;;4.82;70.29;101604.25;5009601;28;20084;-49
2021/10/09 02:11:49;;;;;;;37.75;20.08;;;;;;;4.78;70.66;101612.75;4993206;28;20406;-51
2021/10/09 02:14:43;;;;;;;43.20;20.30;;;;;;;4.68;70.89;101610.84;5025944;28;20088;-53
2021/10/09 02:17:14;;;;;;;39.22;20.25;;;;;;;4.43;70.97;101576.00;5015956;28;20045;-52
2021/10/09 02:25:26;;;;;;;44.15;21.77;;;;;;;4.39;71.43;101599.94;5026444;28;20489;-54
2021/10/09 02:27:55;;;;;;;51.05;21.38;;;;;;;4.34;71.77;101593.84;5028829;28;20033;-48
2021/10/09 02:30:21;;;;;;;43.25;19.52;;;;;;;4.25;72.54;101597.06;5028631;28;20433;-51
2021/10/09 02:32:47;;;;;;;52.28;21.52;;;;;;;4.18;73.17;101587.47;5020102;28;20553;-52
2021/10/09 02:35:13;;;;;;;44.85;21.17;;;;;;;4.12;72.99;101595.06;5041888;28;20046;-52
2021/10/09 02:37:40;;;;;;;45.50;20.83;;;;;;;4.12;73.09;101589.91;5009782;28;20053;-50
2021/10/09 02:40:06;;;;;;;42.55;20.98;;;;;;;4.12;73.20;101582.19;4992860;28;20056;-51
2021/10/09 02:42:32;;;;;;;41.42;20.70;;;;;;;4.06;73.07;101571.75;5025480;28;20045;-51
2021/10/09 02:44:57;;;;;;;43.67;19.75;;;;;;;4.12;73.20;101578.75;5014588;28;20547;-51
2021/10/09 02:47:23;;;;;;;46.83;21.60;;;;;;;4.11;73.15;101584.72;5028332;28;20033;-53
2021/10/09 02:49:49;;;;;;;42.63;20.70;;;;;;;4.05;73.54;101582.88;5027636;28;20600;-48
2021/10/09 02:52:15;;;;;;;43.75;20.88;;;;;;;3.87;73.58;101558.44;5016691;28;20050;-50
2021/10/09 02:54:41;;;;;;;50.97;21.63;;;;;;;3.95;73.61;101587.78;4992574;28;20026;-51
2021/10/09 02:57:08;;;;;;;39.80;20.42;;;;;;;3.92;73.94;101582.59;5009946;28;20049;-51
2021/10/09 02:59:33;;;;;;;47.03;20.90;;;;;;;3.89;73.71;101575.66;5025245;28;20049;-51
2021/10/09 03:02:02;;;;;;;45.35;19.70;;;;;;;3.78;73.91;101559.09;5025120;28;20531;-48
2021/10/09 03:04:30;;;;;;;42.75;20.67;;;;;;;3.90;73.84;101582.53;5024226;28;20109;-48
2021/10/09 03:06:57;;;;;;;45.13;19.45;;;;;;;3.96;73.07;101567.25;5027970;28;20046;-49
2021/10/09 03:09:23;;;;;;;39.15;19.63;;;;;;;4.05;73.08;101574.28;5012369;28;20043;-50
2021/10/09 03:11:49;;;;;;;42.78;20.67;;;;;;;4.05;73.09;101574.28;5045042;28;20045;-52
2021/10/09 03:14:15;;;;;;;50.50;19.77;;;;;;;4.02;72.98;101571.66;5028082;28;20037;-50
2021/10/09 03:16:41;;;;;;;43.72;19.83;;;;;;;4.03;72.98;101570.81;5013533;28;20042;-49
2021/10/09 03:19:08;;;;;;;41.50;19.70;;;;;;;3.97;73.26;101571.56;5025086;28;20509;-49
2021/10/09 03:21:34;;;;;;;40.50;19.85;;;;;;;3.91;73.71;101570.53;4992223;28;20042;-54
2021/10/09 03:24:00;;;;;;;43.88;18.90;;;;;;;3.91;73.74;101571.41;5009473;28;20512;-50
2021/10/09 03:26:26;;;;;;;45.13;19.15;;;;;;;3.91;73.39;101573.13;5025657;28;20052;-51
2021/10/09 03:28:51;;;;;;;46.90;20.55;;;;;;;3.88;73.41;101563.59;5041753;28;20083;-48
2021/10/09 03:31:17;;;;;;;48.58;20.83;;;;;;;3.89;73.19;101570.50;5010590;28;20057;-49
2021/10/09 03:33:43;;;;;;;44.88;19.88;;;;;;;3.93;72.96;101563.72;5031135;28;20052;-52
2021/10/09 03:36:09;;;;;;;40.75;18.85;;;;;;;4.00;73.08;101569.03;5014338;28;20075;-51
2021/10/09 03:38:37;;;;;;;42.83;19.27;;;;;;;3.95;72.77;101552.63;5032990;28;21837;-50
2021/10/09 03:41:08;;;;;;;49.05;19.13;;;;;;;4.11;72.85;101575.31;5032016;28;20116;-55
2021/10/09 03:43:35;;;;;;;36.47;18.58;;;;;;;4.13;72.49;101572.78;5031917;28;20037;-51
2021/10/09 03:46:13;;;;;;;38.85;19.02;;;;;;;4.15;72.44;101571.94;5038838;28;20036;-51
2021/10/09 03:53:56;;;;;;;41.70;19.15;;;;;;;4.12;71.75;101582.19;5046966;28;19971;-50
2021/10/09 03:56:22;;;;;;;42.10;18.75;;;;;;;4.09;71.83;101576.97;5031720;28;20053;-49
2021/10/09 03:58:49;;;;;;;40.13;18.60;;;;;;;4.11;71.71;101574.44;5015247;28;20083;-49
2021/10/09 04:01:17;;;;;;;46.67;19.92;;;;;;;4.13;71.67;101581.38;5032574;28;20041;-49
2021/10/09 04:03:43;;;;;;;39.95;19.35;;;;;;;4.17;71.84;101578.00;5014429;28;20041;-48
2021/10/09 04:06:09;;;;;;;39.17;18.30;;;;;;;4.17;71.74;101579.72;5032499;28;20045;-50
2021/10/09 04:08:35;;;;;;;40.88;18.42;;;;;;;4.10;71.63;101581.28;5047539;28;20072;-49
2021/10/09 04:11:02;;;;;;;40.80;18.45;;;;;;;4.09;71.38;101576.09;5051167;28;20045;-49
2021/10/09 04:13:28;;;;;;;40.88;18.90;;;;;;;3.93;71.44;101544.00;5046340;28;20092;-50
2021/10/09 04:15:54;;;;;;;41.40;18.23;;;;;;;4.08;71.45;101572.63;5031336;28;20095;-50
2021/10/09 04:18:19;;;;;;;36.22;17.67;;;;;;;4.01;71.56;101575.94;5038837;28;20123;-50
2021/10/09 04:20:45;;;;;;;36.78;19.48;;;;;;;3.92;71.64;101570.59;5031218;28;20052;-50
2021/10/09 04:23:13;;;;;;;35.45;18.70;;;;;;;3.90;71.53;101568.78;5014809;28;20045;-48
2021/10/09 04:25:39;;;;;;;38.42;18.33;;;;;;;4.03;71.23;101570.81;5021295;28;20045;-55
2021/10/09 04:28:04;;;;;;;40.45;20.17;;;;;;;3.93;71.41;101561.13;5033231;28;20052;-53
2021/10/09 04:30:33;;;;;;;39.40;18.83;;;;;;;3.93;71.60;101566.28;5031133;28;20037;-50
2021/10/09 04:32:59;;;;;;;39.25;20.33;;;;;;;3.98;71.43;101578.41;5037558;28;20534;-51
2021/10/09 04:35:27;;;;;;;37.60;18.40;;;;;;;4.15;71.19;101581.38;5035237;28;20199;-50
2021/10/09 04:37:53;;;;;;;44.25;18.95;;;;;;;4.25;70.74;101586.75;5031968;28;20183;-49
2021/10/09 04:40:19;;;;;;;35.67;19.30;;;;;;;4.34;70.38;101578.38;5030705;28;20518;-55
2021/10/09 04:42:45;;;;;;;38.10;18.02;;;;;;;4.42;70.14;101578.53;5035319;28;20072;-52
2021/10/09 04:45:11;;;;;;;46.28;18.42;;;;;;;4.41;69.36;101582.81;5002824;28;20497;-52
2021/10/09 04:47:42;;;;;;;39.67;17.30;;;;;;;4.37;69.86;101582.72;5043455;28;20048;-51
2021/10/09 04:50:10;;;;;;;37.42;18.38;;;;;;;4.44;69.58;101587.16;5032822;28;20085;-51
2021/10/09 04:52:36;;;;;;;36.58;18.42;;;;;;;4.57;69.68;101591.72;5015189;28;20116;-55
2021/10/09 04:55:05;;;;;;;38.10;17.95;;;;;;;4.53;69.10;101582.19;5022793;28;20033;-53
2021/10/09 04:57:31;;;;;;;38.25;17.83;;;;;;;4.59;68.92;101580.63;5030320;28;20057;-54
2021/10/09 04:59:56;;;;;;;30.90;16.52;;;;;;;4.66;68.94;101586.75;5047425;28;20044;-49
2021/10/09 05:02:25;;;;;;;33.22;16.85;;;;;;;4.70;68.38;101567.97;5010621;28;20037;-52
2021/10/09 05:04:51;;;;;;;36.25;18.15;;;;;;;4.98;67.88;101583.09;5034836;28;20523;-50
2021/10/09 05:07:17;;;;;;;38.03;17.42;;;;;;;5.19;67.93;101592.06;5030084;28;20451;-52
2021/10/09 05:09:43;;;;;;;39.83;16.33;;;;;;;5.37;66.91;101582.06;5013731;28;20100;-50
2021/10/09 05:12:09;;;;;;;31.70;16.05;;;;;;;5.37;66.14;101577.78;5039633;28;20136;-52
2021/10/09 05:14:35;;;;;;;31.70;16.20;;;;;;;5.52;66.13;101582.34;5034123;28;20471;-49
2021/10/09 05:17:01;;;;;;;36.08;16.45;;;;;;;5.53;65.47;101563.44;5030144;28;20038;-50
2021/10/09 05:19:27;;;;;;;32.63;15.88;;;;;;;5.63;65.30;101580.81;5031307;28;20053;-50
2021/10/09 05:21:54;;;;;;;32.10;15.95;;;;;;;5.84;64.90;101585.44;5030001;28;20473;-51
2021/10/09 05:24:20;;;;;;;31.65;15.93;;;;;;;6.30;63.50;101581.81;5029134;28;20043;-52
2021/10/09 05:26:45;;;;;;;28.75;15.32;;;;;;;6.94;61.88;101574.84;5029838;28;20049;-49
2021/10/09 05:29:18;;;;;;;35.22;15.75;;;;;;;7.83;59.13;101573.06;5033891;28;20516;-52
2021/10/09 05:31:47;;;;;;;33.92;16.73;;;;;;;8.59;57.20;101576.09;5050762;28;20127;-50
2021/10/09 05:34:12;;;;;;;30.30;15.60;;;;;;;9.01;54.60;101575.34;5031713;28;20044;-49
2021/10/09 05:36:39;;;;;;;30.45;15.02;;;;;;;9.46;52.76;101568.50;5035142;28;20090;-49
2021/10/09 05:39:06;;;;;;;28.50;14.88;;;;;;;10.08;50.74;101568.47;5041042;28;20044;-51
2021/10/09 05:41:33;;;;;;;30.58;15.82;;;;;;;10.80;49.66;101563.88;5049637;28;20048;-50
2021/10/09 05:44:06;;;;;;;35.97;17.27;;;;;;;11.62;48.21;101566.78;5049705;28;20037;-48
2021/10/09 05:46:34;;;;;;;32.07;15.90;;;;;;;12.26;45.41;101569.66;5029041;28;20406;-51
2021/10/09 05:49:00;;;;;;;31.55;17.05;;;;;;;12.79;45.37;101572.50;5045348;28;20326;-53
2021/10/09 05:51:34;;;;;;;28.48;16.48;;;;;;;13.53;43.16;101572.28;5022730;28;20049;-53
2021/10/09 06:38:15;;;;;;;30.30;15.77;;;;;;;21.52;27.91;101559.09;5044608;28;20416;-51
2021/10/09 06:43:09;;;;;;;28.63;16.58;;;;;;;21.99;26.91;101554.06;5028424;28;20171;-48
2021/10/09 06:59:30;;;;;;;27.73;17.00;;;;;;;23.41;24.40;101555.94;5043794;28;20476;-62
2021/10/09 07:01:56;;;;;;;25.70;15.80;;;;;;;22.88;25.37;101550.16;5027713;28;20048;-64
2021/10/09 07:04:22;;;;;;;32.60;18.27;;;;;;;23.21;24.61;101553.56;5028351;28;20130;-63
2021/10/09 07:06:50;;;;;;;30.98;18.05;;;;;;;23.58;24.28;101555.84;5030389;28;20933;-60
2021/10/09 07:09:28;;;;;;;28.25;15.07;;;;;;;24.11;23.43;101558.91;5032363;28;20136;-63
2021/10/09 07:11:59;;;;;;;22.92;14.77;;;;;;;24.28;23.17;101556.09;5018891;28;20136;-64
2021/10/09 07:14:25;;;;;;;25.90;15.10;;;;;;;23.99;22.95;101550.72;5053276;28;20127;-64
2021/10/09 07:16:51;;;;;;;22.30;14.23;;;;;;;24.21;22.84;101552.09;5045226;28;20099;-57
2021/10/09 07:19:17;;;;;;;21.38;14.32;;;;;;;24.31;22.35;101550.59;5050034;28;20044;-56
2021/10/09 07:21:44;;;;;;;26.13;15.93;;;;;;;24.33;23.05;101552.22;5050307;28;20052;-63
2021/10/09 07:24:10;;;;;;;22.08;14.70;;;;;;;24.74;22.70;101544.28;5042045;28;20049;-62
2021/10/09 07:26:36;;;;;;;21.95;12.93;;;;;;;23.49;23.20;101544.91;5033431;28;20080;-61
2021/10/09 07:29:02;;;;;;;18.65;12.95;;;;;;;22.68;24.32;101538.84;5032764;28;20513;-63
2021/10/09 07:31:28;;;;;;;27.35;13.55;;;;;;;22.86;24.25;101544.09;5038503;28;20095;-70
2021/10/09 07:33:54;;;;;;;23.80;12.60;;;;;;;23.00;23.82;101549.47;5017915;28;20522;-69
2021/10/09 07:36:20;;;;;;;22.02;13.35;;;;;;;23.16;23.86;101548.53;5040896;28;20069;-69
2021/10/09 07:38:45;;;;;;;22.15;12.48;;;;;;;23.28;23.62;101544.34;5031406;28;20041;-69
2021/10/09 07:41:11;;;;;;;19.63;12.88;;;;;;;24.21;23.08;101546.78;5030781;28;20094;-68
2021/10/09 07:43:37;;;;;;;20.98;12.68;;;;;;;24.46;22.76;101541.66;5016182;28;20052;-68
2021/10/09 07:46:03;;;;;;;23.08;13.75;;;;;;;24.73;22.72;101539.91;5013226;28;20048;-69
2021/10/09 07:48:29;;;;;;;19.88;13.73;;;;;;;24.62;22.09;101547.72;5013170;28;20033;-68
2021/10/09 07:50:56;;;;;;;26.90;13.52;;;;;;;23.81;22.69;101535.03;5012958;28;20048;-67
2021/10/09 07:53:22;;;;;;;27.75;13.50;;;;;;;23.77;23.21;101537.00;5025394;28;20048;-67
2021/10/09 07:55:48;;;;;;;23.65;13.77;;;;;;;24.14;23.01;101540.09;5031659;28;20053;-68
2021/10/09 07:58:14;;;;;;;36.08;15.23;;;;;;;24.18;22.55;101526.53;5032287;28;20087;-67
2021/10/09 08:00:40;;;;;;;24.58;12.77;;;;;;;24.35;22.44;101537.00;5032668;28;20493;-68
2021/10/09 08:03:06;;;;;;;15.70;12.23;;;;;;;23.35;23.34;101532.38;5022518;28;20038;-69
2021/10/09 08:05:34;;;;;;;26.35;13.82;;;;;;;22.93;23.84;101535.69;4995580;28;20533;-67
2021/10/09 08:08:02;;;;;;;21.70;12.77;;;;;;;22.19;24.42;101513.28;5012946;28;20030;-69
2021/10/09 08:10:28;;;;;;;23.08;13.75;;;;;;;22.17;24.82;101536.34;5011671;28;20141;-68
2021/10/09 08:12:53;;;;;;;29.05;12.68;;;;;;;22.73;24.11;101535.97;5020397;28;20153;-68
2021/10/09 08:15:19;;;;;;;25.45;12.52;;;;;;;23.19;23.68;101534.22;5032499;28;20040;-68
2021/10/09 08:17:45;;;;;;;28.13;12.00;;;;;;;23.64;23.26;101536.91;5031689;28;20132;-68
2021/10/09 08:20:11;;;;;;;22.08;11.55;;;;;;;23.67;23.11;101535.84;5030857;28;20505;-67
2021/10/09 08:22:42;;;;;;;24.48;12.30;;;;;;;23.49;23.39;101531.63;5027302;28;20052;-67
2021/10/09 08:28:04;;;;;;;22.20;13.25;;;;;;;23.23;23.70;101535.78;5027805;28;20128;-68
2021/10/09 08:36:19;;;;;;;19.35;11.27;;;;;;;24.74;22.36;101538.09;5028917;28;20132;-68
2021/10/09 08:41:11;;;;;;;21.38;12.77;;;;;;;25.79;20.87;101533.84;5031730;28;20060;-69
2021/10/09 08:43:37;;;;;;;20.00;12.48;;;;;;;26.30;21.12;101529.38;5021417;28;20057;-69
2021/10/09 08:46:03;;;;;;;24.40;11.93;;;;;;;26.73;20.40;101533.38;5012067;28;20421;-69
2021/10/09 08:48:30;;;;;;;21.63;11.45;;;;;;;27.27;20.05;101528.47;5011747;28;20129;-65
2021/10/09 08:50:57;;;;;;;14.52;11.32;;;;;;;27.85;19.31;101537.41;5011754;28;20121;-68
2021/10/09 08:53:35;;;;;;;22.35;11.43;;;;;;;28.98;18.76;101530.16;5010307;28;20037;-67
2021/10/09 08:56:01;;;;;;;;;;;;;;;29.35;17.79;101528.00;5012308;28;20041;-68
2021/10/09 08:58:38;;;;;;;20.83;11.50;;;;;;;29.61;17.97;101523.09;5011855;28;20317;-68
2021/10/09 09:04:29;;;;;;;18.20;11.13;;;;;;;29.43;17.93;101527.31;5031687;28;20088;-68
2021/10/09 09:40:34;;;;;;;14.80;8.80;;;;;;;28.71;17.26;101494.03;5029795;28;20478;-65
2021/10/09 09:43:00;;;;;;;29.23;13.63;;;;;;;29.56;16.97;101486.94;5018805;28;20151;-68
2021/10/09 09:45:27;;;;;;;21.52;10.93;;;;;;;30.34;16.09;101472.94;5026322;28;20137;-68
2021/10/09 09:47:59;;;;;;;15.90;9.85;;;;;;;29.23;15.87;101472.69;5009416;28;20038;-69
2021/10/09 09:50:26;;;;;;;25.15;10.88;;;;;;;28.49;16.47;101476.19;5010882;28;20046;-66
2021/10/09 09:52:51;;;;;;;7.78;5.82;;;;;;;29.13;15.89;101458.38;5007544;28;20513;-66
2021/10/09 09:55:19;;;;;;;9.95;5.88;;;;;;;29.70;15.47;101470.50;5009433;28;20041;-66
2021/10/09 09:57:44;;;;;;;14.05;8.52;;;;;;;30.09;15.56;101466.22;5025476;28;20584;-66
2021/10/09 10:00:12;;;;;;;14.23;6.20;;;;;;;30.44;15.39;101472.00;5009679;28;20057;-67
2021/10/09 10:02:50;;;;;;;11.57;8.07;;;;;;;29.68;15.51;101472.47;4996930;28;20150;-66
2021/10/09 10:05:16;;;;;;;8.50;6.30;;;;;;;30.14;15.49;101467.53;5025500;28;20034;-68
2021/10/09 10:07:42;;;;;;;13.93;7.82;;;;;;;30.23;15.30;101460.47;5047706;28;20080;-63
2021/10/09 10:10:09;;;;;;;15.52;8.82;;;;;;;30.16;15.31;101467.38;5048314;28;20068;-68
2021/10/09 10:12:35;;;;;;;15.35;8.45;;;;;;;30.49;15.05;101464.41;5040796;28;20046;-68
2021/10/09 10:15:02;;;;;;;12.07;7.10;;;;;;;30.54;15.25;101462.16;5031504;28;20037;-69
2021/10/09 10:17:40;;;;;;;16.15;9.10;;;;;;;30.92;14.96;101468.56;5031150;28;20103;-67
2021/10/09 10:20:17;;;;;;;9.20;7.10;;;;;;;30.56;14.88;101460.19;5030160;28;20079;-68
2021/10/09 10:22:43;;;;;;;8.63;6.32;;;;;;;30.65;15.03;101456.66;5029591;28;20394;-61
2021/10/09 10:25:24;;;;;;;8.85;6.10;;;;;;;30.24;15.18;101455.00;5017595;28;20048;-60
2021/10/09 10:28:13;;;;;;;12.48;7.65;;;;;;;30.50;15.58;101459.88;5027000;28;20072;-61
2021/10/09 10:30:48;;;;;;;13.48;8.27;;;;;;;31.28;15.08;101457.13;5040615;28;20037;-62
2021/10/09 10:33:18;;;;;;;11.95;7.07;;;;;;;31.90;14.93;101461.97;5019473;28;20037;-63
2021/10/09 10:35:46;;;;;;;11.05;6.85;;;;;;;32.24;14.54;101459.56;5013406;28;20046;-63
2021/10/09 10:38:24;;;;;;;;;;;;;;;32.61;14.50;101459.50;5015848;28;20136;-63
2021/10/09 10:41:15;;;;;;;12.18;7.00;;;;;;;32.78;13.99;101452.47;4992478;28;19924;-61
2021/10/09 10:46:37;;;;;;;8.63;5.35;;;;;;;33.25;13.13;101445.00;5018003;28;20137;-54
2021/10/09 10:49:18;;;;;;;8.13;5.32;;;;;;;33.37;13.16;101441.06;5014261;28;20054;-60
2021/10/09 10:54:31;;;;;;;9.43;5.82;;;;;;;33.41;12.98;101431.63;5020044;28;20092;-58
2021/10/09 10:57:00;;;;;;;9.35;5.32;;;;;;;33.33;12.90;101439.69;5010662;28;20041;-58
2021/10/09 11:02:14;;;;;;;6.65;4.97;;;;;;;32.68;13.27;101441.75;5030486;28;20417;-52
2021/10/09 11:04:52;;;;;;;10.02;5.82;;;;;;;32.26;13.91;101429.81;5031311;28;20050;-54
2021/10/09 11:07:19;;;;;;;;;;;;;;;32.16;14.10;101427.19;5021871;28;20091;-54
2021/10/09 11:09:45;;;;;;;10.95;6.03;;;;;;;31.78;14.13;101421.94;5025787;28;19921;-54
2021/10/09 11:12:26;;;;;;;8.68;5.45;;;;;;;32.12;13.76;101406.09;5017705;28;20041;-53
2021/10/09 11:15:03;;;;;;;12.95;6.20;;;;;;;32.44;13.76;101417.25;5016264;28;20052;-53
2021/10/09 11:17:37;;;;;;;9.35;5.55;;;;;;;32.17;13.68;101409.19;5016157;28;20123;-55
2021/10/09 11:20:05;;;;;;;9.05;5.18;;;;;;;31.38;14.18;101406.88;5018390;28;20041;-54
2021/10/09 11:22:45;;;;;;;11.05;5.20;;;;;;;31.32;14.48;101401.22;5030298;28;20042;-53
2021/10/09 11:25:30;;;;;;;6.50;4.72;;;;;;;30.34;15.16;101393.28;5033046;28;20045;-53
2021/10/09 11:27:58;;;;;;;8.57;4.88;;;;;;;29.12;15.95;101370.94;5013771;28;20037;-55
2021/10/09 11:30:24;;;;;;;5.97;4.20;;;;;;;28.45;16.08;101391.78;5018405;28;20045;-57
2021/10/09 11:32:52;;;;;;;5.03;4.03;;;;;;;27.51;16.61;101389.50;5017346;28;20033;-55
2021/10/09 11:35:37;;;;;;;7.28;4.40;;;;;;;26.68;17.30;101386.06;5019035;28;20045;-54
2021/10/09 11:38:24;;;;;;;6.88;4.28;;;;;;;25.77;18.21;101375.84;5026224;28;20076;-56
2021/10/09 11:40:56;;;;;;;6.68;4.07;;;;;;;25.09;18.78;101369.00;5019758;28;20107;-55
2021/10/09 11:46:48;;;;;;;5.78;3.92;;;;;;;24.18;19.75;101377.69;5011535;28;20049;-54
2021/10/09 11:55:17;;;;;;;6.28;3.78;;;;;;;22.68;20.89;101366.47;5016955;28;20060;-57
2021/10/09 11:57:43;;;;;;;7.43;4.40;;;;;;;23.07;20.90;101365.13;5020642;28;20180;-54
2021/10/09 12:00:27;;;;;;;8.20;4.03;;;;;;;23.08;21.60;101359.69;5033121;28;20133;-56
2021/10/09 12:02:56;;;;;;;12.57;4.25;;;;;;;23.02;21.58;101375.16;5028294;28;20546;-54
2021/10/09 12:05:22;;;;;;;9.63;3.92;;;;;;;22.86;21.70;101359.28;5024254;28;20041;-53
2021/10/09 12:11:10;;;;;;;12.00;4.32;;;;;;;22.53;21.70;101342.63;5027711;28;20053;-54
2021/10/09 12:13:48;;;;;;;13.32;4.93;;;;;;;22.31;22.34;101345.66;5025438;28;20433;-55
2021/10/09 12:16:22;;;;;;;13.68;5.15;;;;;;;22.08;22.75;101346.09;5024594;28;20136;-54
2021/10/09 12:18:54;;;;;;;11.02;4.32;;;;;;;21.64;23.06;101337.88;5018383;28;20046;-54
2021/10/09 12:21:24;;;;;;;9.10;4.63;;;;;;;21.32;23.58;101344.88;5017104;28;20048;-54
2021/10/09 12:23:51;;;;;;;8.55;4.38;;;;;;;20.92;24.09;101320.47;4993870;28;20045;-55
2021/10/09 12:26:18;;;;;;;5.95;3.70;;;;;;;20.58;24.25;101299.31;5020941;28;20056;-53
2021/10/09 12:29:07;;;;;;;8.20;4.28;;;;;;;20.45;23.95;101333.44;5049859;28;20091;-54
2021/10/09 12:31:33;;;;;;;;;;;;;;;20.26;24.02;101325.50;5004711;28;20504;-57
2021/10/09 12:33:59;;;;;;;6.00;4.00;;;;;;;20.57;23.66;101327.53;5014962;28;19975;-54
2021/10/09 12:36:38;;;;;;;8.25;4.13;;;;;;;20.56;23.61;101328.47;5015245;28;20057;-51
2021/10/09 12:39:20;;;;;;;8.23;4.30;;;;;;;20.79;23.64;101311.44;5017760;28;20049;-56
2021/10/09 12:41:46;;;;;;;6.05;3.88;;;;;;;20.27;23.65;101316.66;5011477;28;20051;-55
2021/10/09 12:44:12;;;;;;;8.00;4.05;;;;;;;20.14;23.79;101286.50;5024400;28;20293;-53
2021/10/09 12:46:37;;;;;;;12.57;4.90;;;;;;;20.02;24.01;101316.13;5025438;28;20524;-54
2021/10/09 12:49:03;;;;;;;8.57;4.15;;;;;;;19.87;24.33;101314.19;5017727;28;20054;-58
2021/10/09 12:51:29;;;;;;;10.65;4.15;;;;;;;19.94;24.45;101312.97;5017469;28;20137;-54
2021/10/09 12:53:56;;;;;;;6.47;3.92;;;;;;;19.84;24.61;101312.53;5021492;28;20096;-53
2021/10/09 12:56:25;;;;;;;11.65;4.50;;;;;;;19.85;24.83;101300.19;5019717;28;20042;-57
2021/10/09 12:58:51;;;;;;;8.05;4.28;;;;;;;19.73;25.07;101296.34;5024301;28;20049;-56
2021/10/09 13:01:17;;;;;;;8.00;4.60;;;;;;;19.67;26.01;101303.72;5022910;28;20116;-53
2021/10/09 13:03:43;;;;;;;9.70;4.78;;;;;;;19.54;26.40;101305.19;5019975;28;20509;-51
2021/10/09 13:06:08;;;;;;;9.80;4.57;;;;;;;19.44;26.62;101299.44;5018820;28;20060;-50
2021/10/09 13:08:34;;;;;;;17.23;5.78;;;;;;;19.43;26.95;101293.31;5019301;28;20033;-53
2021/10/09 13:11:00;;;;;;;9.07;5.38;;;;;;;19.44;26.87;101291.53;5039921;28;20037;-54
2021/10/09 13:13:26;;;;;;;8.70;4.22;;;;;;;19.39;26.80;101297.00;5021473;28;20045;-53
2021/10/09 13:15:51;;;;;;;8.63;4.72;;;;;;;19.23;26.62;101284.56;5022604;28;20045;-51
2021/10/09 13:18:17;;;;;;;7.95;4.38;;;;;;;18.92;26.43;101256.06;5027045;28;20072;-52
2021/10/09 13:20:43;;;;;;;14.95;5.20;;;;;;;19.03;27.29;101285.47;5020267;28;20045;-56
2021/10/09 13:23:09;;;;;;;6.55;4.53;;;;;;;19.03;27.43;101282.84;5024643;28;20049;-58
2021/10/09 13:25:34;;;;;;;10.75;4.90;;;;;;;18.92;27.68;101285.06;5018796;28;20064;-52
2021/10/09 13:28:00;;;;;;;11.73;5.50;;;;;;;18.82;27.63;101279.34;5023040;28;20040;-56
2021/10/09 13:30:26;;;;;;;9.48;5.30;;;;;;;18.67;27.75;101277.38;5012119;28;20071;-57
2021/10/09 13:32:52;;;;;;;11.55;4.70;;;;;;;18.52;28.03;101272.72;5023034;28;20037;-57
2021/10/09 13:35:18;;;;;;;9.65;5.03;;;;;;;18.44;28.66;101262.47;5043338;28;20489;-55
2021/10/09 13:37:53;;;;;;;11.60;5.82;;;;;;;18.45;28.42;101274.72;5025308;28;20033;-58
2021/10/09 13:40:20;;;;;;;8.27;4.88;;;;;;;18.04;28.63;101271.16;5030807;28;20174;-54
2021/10/09 13:42:46;;;;;;;8.60;5.10;;;;;;;17.71;29.22;101270.69;5029355;28;20037;-59